Time;durP1;ratioP1;P1;durP2;ratioP2;P2;SDS_P1;SDS_P2;PMS_P1;PMS_P2;Temp;Humidity;BMP_temperature;BMP_pressure;BME280_temperature;BME280_humidity;BME280_pressure;Samples;Min_cycle;Max_cycle;Signal;HPM_P1;HPM_P2
2022/04/14 00:00:23;;;;;;;39.15;20.65;;;;;;;2.02;69.32;95106.83;1717280;83;21057;-50
2022/04/14 00:02:51;;;;;;;36.58;21.05;;;;;;;2.02;69.16;95104.11;1699341;83;21133;-50
2022/04/14 00:05:18;;;;;;;36.55;16.65;;;;;;;1.98;69.25;95117.66;1711752;82;20970;-51
2022/04/14 00:07:46;;;;;;;33.83;19.77;;;;;;;1.97;69.19;95116.70;1745272;81;20988;-50
2022/04/14 00:10:14;;;;;;;36.88;16.40;;;;;;;1.98;69.17;95107.41;1745374;81;20998;-50
2022/04/14 00:12:43;;;;;;;69.25;37.38;;;;;;;1.97;69.15;95110.68;1745224;82;21057;-51
2022/04/14 00:15:11;;;;;;;91.65;53.38;;;;;;;1.93;69.29;95117.27;1745110;82;21025;-53
2022/04/14 00:17:38;;;;;;;74.32;41.18;;;;;;;1.93;69.53;95116.69;1744819;81;21227;-50
2022/04/14 00:20:08;;;;;;;41.10;23.57;;;;;;;1.96;69.61;95116.50;1745282;81;20951;-49
2022/04/14 00:22:35;;;;;;;33.10;19.02;;;;;;;1.98;69.51;95115.54;1722440;81;20950;-51
2022/04/14 00:25:04;;;;;;;51.53;25.88;;;;;;;2.00;69.56;95118.64;1700217;83;21007;-50
2022/04/14 00:27:32;;;;;;;61.90;32.70;;;;;;;1.99;69.56;95111.67;1720623;83;21553;-51
2022/04/14 00:29:59;;;;;;;46.15;26.93;;;;;;;1.98;69.93;95107.41;1720517;83;21009;-51
2022/04/14 00:32:26;;;;;;;52.25;28.52;;;;;;;1.99;69.77;95107.59;1720964;83;20986;-50
2022/04/14 00:34:52;;;;;;;35.40;21.45;;;;;;;1.93;69.56;95107.19;1677276;83;21017;-51
2022/04/14 00:37:19;;;;;;;30.72;17.42;;;;;;;1.85;69.60;95104.27;1721018;83;21568;-50
2022/04/14 00:39:49;;;;;;;26.68;15.72;;;;;;;1.74;69.58;95099.97;1720409;83;21691;-51
2022/04/14 00:42:16;;;;;;;30.97;18.35;;;;;;;1.69;69.77;95108.45;1720872;83;21391;-52
2022/04/14 00:44:43;;;;;;;49.55;24.02;;;;;;;1.65;70.03;95109.62;1712621;83;21056;-51
2022/04/14 00:47:12;;;;;;;36.75;19.92;;;;;;;1.62;70.17;95104.38;1695260;84;21048;-51
2022/04/14 00:49:39;;;;;;;35.08;18.20;;;;;;;1.62;70.46;95111.14;1694695;84;21026;-50
2022/04/14 00:52:08;;;;;;;33.23;16.67;;;;;;;1.60;70.33;95112.11;1673136;84;21143;-50
2022/04/14 00:54:35;;;;;;;47.17;22.45;;;;;;;1.57;70.35;95112.09;1673215;84;20977;-50
2022/04/14 00:57:04;;;;;;;44.45;23.02;;;;;;;1.55;70.60;95106.27;1695013;84;21520;-51
2022/04/14 00:59:31;;;;;;;32.33;18.20;;;;;;;1.52;71.07;95105.09;1695115;84;21045;-51
2022/04/14 01:01:59;;;;;;;27.48;15.43;;;;;;;1.56;71.21;95107.27;1694772;84;21010;-50
2022/04/14 01:04:26;;;;;;;30.45;16.90;;;;;;;1.56;71.51;95102.41;1694808;84;21127;-50
2022/04/14 01:06:53;;;;;;;38.70;19.95;;;;;;;1.56;71.24;95101.84;1694953;84;21030;-51
2022/04/14 01:09:21;;;;;;;31.23;18.48;;;;;;;1.57;71.54;95096.61;1694894;84;21092;-50
2022/04/14 01:11:50;;;;;;;34.40;18.35;;;;;;;1.59;71.43;95102.42;1694020;83;21111;-50
2022/04/14 01:14:34;;;;;;;29.02;15.85;;;;;;;1.60;71.40;95093.13;1691217;84;20973;-50
2022/04/14 01:17:08;;;;;;;35.92;16.57;;;;;;;1.57;71.60;95095.25;1691187;84;21152;-50
2022/04/14 01:19:37;;;;;;;25.12;14.45;;;;;;;1.60;71.58;95097.77;1691218;84;21012;-50
2022/04/14 01:22:15;;;;;;;26.68;14.85;;;;;;;1.62;71.68;95088.10;1693343;83;20968;-50
2022/04/14 01:24:42;;;;;;;29.25;18.32;;;;;;;1.63;71.53;95092.93;1694337;84;21040;-50
2022/04/14 01:27:10;;;;;;;44.65;23.32;;;;;;;1.62;71.18;95078.61;1673239;84;21052;-52
2022/04/14 01:29:37;;;;;;;33.38;21.48;;;;;;;1.62;71.34;95080.53;1694486;83;21151;-50
2022/04/14 01:32:06;;;;;;;35.23;22.35;;;;;;;1.59;71.02;95084.80;1694659;84;21020;-50
2022/04/14 01:34:33;;;;;;;41.77;25.65;;;;;;;1.55;71.11;95088.09;1695152;83;21033;-51
2022/04/14 01:37:00;;;;;;;47.78;27.30;;;;;;;1.55;71.26;95081.88;1672788;84;20984;-50
2022/04/14 01:39:29;;;;;;;36.48;24.20;;;;;;;1.55;71.08;95078.59;1695262;84;20956;-51
2022/04/14 01:41:56;;;;;;;41.85;21.55;;;;;;;1.53;71.07;95087.66;1694691;83;21367;-51
2022/04/14 01:44:23;;;;;;;26.60;16.75;;;;;;;1.52;71.33;95073.91;1695133;83;21021;-50
2022/04/14 01:46:50;;;;;;;23.70;14.07;;;;;;;1.51;71.32;95067.53;1686745;84;21012;-50
2022/04/14 01:49:18;;;;;;;30.80;16.48;;;;;;;1.44;71.51;95060.14;1644061;84;21119;-50
2022/04/14 01:51:48;;;;;;;31.97;17.60;;;;;;;1.37;71.70;95060.70;1707247;84;21574;-49
2022/04/14 01:54:14;;;;;;;30.68;17.52;;;;;;;1.27;72.01;95058.13;1665025;86;21183;-50
2022/04/14 01:56:42;;;;;;;27.77;16.32;;;;;;;1.23;72.35;95056.56;1707530;84;21052;-51
2022/04/14 01:59:09;;;;;;;32.25;16.67;;;;;;;1.16;72.35;95051.88;1665580;84;20983;-51
2022/04/14 02:01:38;;;;;;;21.15;12.40;;;;;;;1.13;72.71;95054.00;1704067;83;21129;-49
2022/04/14 02:04:07;;;;;;;29.00;16.00;;;;;;;1.17;72.60;95056.73;1663980;86;21090;-49
2022/04/14 02:06:35;;;;;;;35.98;16.70;;;;;;;1.10;72.41;95052.05;1675713;85;21004;-51
2022/04/14 02:09:04;;;;;;;238.18;79.17;;;;;;;1.05;72.68;95047.56;1675384;85;21015;-50
2022/04/14 02:11:32;;;;;;;37.53;19.57;;;;;;;1.03;72.90;95043.90;1675402;85;21020;-52
2022/04/14 02:13:58;;;;;;;34.78;18.48;;;;;;;1.00;73.13;95055.47;1693282;84;21453;-52
2022/04/14 02:16:25;;;;;;;37.08;18.23;;;;;;;1.00;73.27;95047.94;1693504;84;21051;-50
2022/04/14 02:18:52;;;;;;;38.85;19.30;;;;;;;0.97;73.28;95051.41;1693267;84;21200;-53
2022/04/14 02:21:19;;;;;;;41.60;20.37;;;;;;;0.90;73.59;95054.84;1683192;84;22690;-50
2022/04/14 02:23:46;;;;;;;46.15;23.20;;;;;;;0.92;73.63;95056.59;1706447;83;21073;-49
2022/04/14 02:26:15;;;;;;;67.32;32.20;;;;;;;0.94;73.87;95055.64;1707367;84;21027;-51
2022/04/14 02:28:44;;;;;;;71.75;32.35;;;;;;;1.01;73.67;95052.98;1707416;84;21022;-52
2022/04/14 02:31:11;;;;;;;59.90;31.48;;;;;;;0.99;73.41;95058.57;1707357;84;21265;-50
2022/04/14 02:33:38;;;;;;;56.33;30.82;;;;;;;0.98;73.49;95060.48;1707728;84;21420;-51
2022/04/14 02:36:06;;;;;;;49.58;28.00;;;;;;;0.99;73.66;95050.45;1659056;84;20976;-50
2022/04/14 02:38:32;;;;;;;51.42;29.48;;;;;;;0.99;73.71;95057.22;1707292;84;21090;-50
2022/04/14 02:41:01;;;;;;;52.62;28.02;;;;;;;1.00;73.45;95054.70;1707440;84;21529;-51
2022/04/14 02:43:27;;;;;;;65.32;36.77;;;;;;;0.96;73.34;95054.67;1707435;84;21226;-50
2022/04/14 02:45:55;;;;;;;52.10;30.08;;;;;;;0.93;73.38;95059.50;1707494;84;21023;-50
2022/04/14 02:48:22;;;;;;;49.27;27.95;;;;;;;0.95;73.61;95059.89;1707588;84;21010;-49
2022/04/14 02:50:48;;;;;;;44.35;25.57;;;;;;;0.98;73.61;95063.20;1707381;84;20971;-53
2022/04/14 02:53:15;;;;;;;42.88;20.43;;;;;;;1.02;73.49;95065.38;1707438;84;21027;-51
2022/04/14 02:55:43;;;;;;;26.23;16.42;;;;;;;1.01;73.26;95066.53;1707642;84;21186;-51
2022/04/14 02:58:11;;;;;;;37.33;22.95;;;;;;;1.02;73.11;95070.00;1707376;84;21015;-52
2022/04/14 03:00:38;;;;;;;37.42;18.90;;;;;;;0.98;72.84;95072.67;1707820;84;21495;-50
2022/04/14 03:03:05;;;;;;;36.88;19.98;;;;;;;0.93;72.99;95077.70;1707119;84;20967;-51
2022/04/14 03:05:32;;;;;;;41.60;22.05;;;;;;;0.91;72.98;95079.41;1681553;84;21011;-50
2022/04/14 03:08:00;;;;;;;42.58;21.48;;;;;;;0.88;73.19;95088.30;1707530;84;21079;-51
2022/04/14 03:10:28;;;;;;;36.77;18.05;;;;;;;0.85;73.40;95088.27;1707499;84;20967;-51
2022/04/14 03:12:57;;;;;;;39.45;19.12;;;;;;;0.82;73.32;95088.46;1707521;84;21462;-52
2022/04/14 03:15:25;;;;;;;34.88;19.02;;;;;;;0.82;73.46;95089.81;1707298;84;20998;-50
2022/04/14 03:17:54;;;;;;;42.62;19.10;;;;;;;0.84;73.54;95096.19;1707556;84;21058;-51
2022/04/14 03:20:21;;;;;;;51.58;24.57;;;;;;;0.88;73.45;95107.25;1707282;84;21179;-50
2022/04/14 03:22:49;;;;;;;53.90;25.02;;;;;;;0.90;73.25;95109.00;1705521;84;21067;-53
2022/04/14 03:25:16;;;;;;;37.80;20.20;;;;;;;0.86;73.24;95102.80;1698648;84;21158;-51
2022/04/14 03:27:43;;;;;;;34.35;16.52;;;;;;;0.84;73.15;95109.17;1698739;84;21027;-51
2022/04/14 03:30:10;;;;;;;39.78;18.27;;;;;;;0.74;72.84;95113.16;1698991;84;20976;-52
2022/04/14 03:32:44;;;;;;;46.08;20.45;;;;;;;0.64;72.98;95116.54;1698875;84;21031;-51
2022/04/14 03:35:11;;;;;;;103.97;46.45;;;;;;;0.58;73.41;95117.46;1699098;84;21086;-52
2022/04/14 03:37:39;;;;;;;54.93;25.08;;;;;;;0.56;73.80;95121.12;1676783;84;21118;-51
2022/04/14 03:40:07;;;;;;;47.13;24.92;;;;;;;0.55;74.14;95125.57;1698593;84;21036;-50
2022/04/14 03:42:35;;;;;;;64.27;27.87;;;;;;;0.53;74.31;95128.64;1699086;84;21027;-52
2022/04/14 03:45:07;;;;;;;93.50;47.58;;;;;;;0.44;74.43;95119.28;1699003;84;21250;-49
2022/04/14 03:47:34;;;;;;;83.27;42.45;;;;;;;0.36;74.63;95131.96;1698914;84;21023;-52
2022/04/14 03:50:02;;;;;;;167.05;62.08;;;;;;;0.30;74.92;95128.61;1698639;84;21149;-53
2022/04/14 03:52:31;;;;;;;129.65;58.40;;;;;;;0.29;74.98;95130.55;1698587;84;21062;-51
2022/04/14 03:54:59;;;;;;;143.15;54.50;;;;;;;0.27;75.25;95131.51;1698913;84;21118;-50
2022/04/14 03:57:26;;;;;;;122.25;49.50;;;;;;;0.31;75.59;95135.02;1677150;84;21702;-49
2022/04/14 03:59:53;;;;;;;102.40;44.30;;;;;;;0.40;75.67;95138.77;1698887;84;21015;-51
2022/04/14 04:02:19;;;;;;;121.75;43.25;;;;;;;0.45;75.44;95133.02;1698083;84;21098;-53
2022/04/14 04:04:47;;;;;;;115.28;49.10;;;;;;;0.50;75.55;95131.30;1697522;84;21543;-53
2022/04/14 04:07:15;;;;;;;77.65;36.30;;;;;;;0.56;75.72;95137.36;1698196;84;21066;-51
2022/04/14 04:09:43;;;;;;;63.68;32.90;;;;;;;0.63;75.48;95137.41;1698980;84;21507;-51
2022/04/14 04:12:10;;;;;;;81.75;36.05;;;;;;;0.65;75.22;95133.78;1698584;84;21603;-51
2022/04/14 04:14:39;;;;;;;101.78;47.10;;;;;;;0.65;75.30;95139.19;1698748;84;21000;-54
2022/04/14 04:17:06;;;;;;;125.00;54.33;;;;;;;0.73;75.48;95140.78;1698638;84;20996;-52
2022/04/14 04:19:38;;;;;;;129.70;57.43;;;;;;;0.82;75.44;95135.84;1698844;84;21531;-51
2022/04/14 04:22:04;;;;;;;141.97;62.43;;;;;;;0.89;75.08;95130.47;1698793;84;21293;-53
2022/04/14 04:24:32;;;;;;;120.77;52.98;;;;;;;0.92;74.95;95133.78;1704420;83;21015;-53
2022/04/14 04:26:58;;;;;;;106.63;45.73;;;;;;;0.98;74.95;95129.55;1706323;84;20999;-52
2022/04/14 04:29:25;;;;;;;113.15;51.75;;;;;;;1.07;74.79;95125.95;1705725;84;21074;-51
2022/04/14 04:31:52;;;;;;;123.95;57.17;;;;;;;1.19;75.05;95124.30;1706019;84;21133;-54
2022/04/14 04:34:19;;;;;;;97.65;53.48;;;;;;;1.83;75.89;95123.42;1705693;83;21235;-51
2022/04/14 04:36:47;;;;;;;152.22;72.70;;;;;;;2.99;74.30;95118.92;1705737;84;21075;-53
2022/04/14 04:39:14;;;;;;;150.90;68.92;;;;;;;3.60;71.89;95115.91;1706001;84;21015;-52
2022/04/14 04:41:41;;;;;;;150.70;69.70;;;;;;;3.89;70.38;95115.98;1705984;84;21091;-53
2022/04/14 04:44:07;;;;;;;141.07;64.55;;;;;;;4.03;69.38;95120.61;1705559;84;20948;-51
2022/04/14 04:46:35;;;;;;;107.27;47.10;;;;;;;3.93;68.95;95118.70;1706177;84;22186;-53
2022/04/14 04:49:03;;;;;;;88.45;41.98;;;;;;;3.85;68.70;95123.99;1706085;83;21007;-52
2022/04/14 04:51:30;;;;;;;151.50;64.22;;;;;;;3.83;68.36;95132.53;1699645;84;21140;-54
2022/04/14 04:53:57;;;;;;;132.10;59.85;;;;;;;3.79;68.28;95122.26;1706091;84;20988;-56
2022/04/14 04:56:24;;;;;;;141.00;57.93;;;;;;;3.71;67.81;95124.03;1705699;84;21030;-54
2022/04/14 04:58:51;;;;;;;122.53;58.65;;;;;;;3.50;67.57;95119.42;1706016;84;21253;-51
2022/04/14 05:01:17;;;;;;;117.53;57.15;;;;;;;3.30;67.81;95122.98;1705898;84;21424;-53
2022/04/14 05:03:44;;;;;;;111.72;51.90;;;;;;;3.17;68.02;95121.05;1705945;84;21502;-55
2022/04/14 05:06:11;;;;;;;88.07;42.90;;;;;;;3.11;68.25;95126.69;1705800;83;21067;-54
2022/04/14 05:08:38;;;;;;;99.20;43.52;;;;;;;3.04;68.38;95125.35;1706370;84;21431;-55
2022/04/14 05:11:07;;;;;;;70.47;35.13;;;;;;;2.97;68.55;95123.98;1706543;84;21376;-54
2022/04/14 05:13:35;;;;;;;69.15;34.92;;;;;;;2.95;68.90;95122.23;1705890;83;21098;-55
2022/04/14 05:16:02;;;;;;;42.95;21.02;;;;;;;3.03;68.92;95120.48;1705988;84;21019;-57
2022/04/14 05:18:29;;;;;;;56.73;31.20;;;;;;;3.14;68.55;95124.55;1706058;84;21023;-53
2022/04/14 05:20:57;;;;;;;56.60;28.62;;;;;;;3.21;68.45;95127.28;1705876;84;21562;-55
2022/04/14 05:23:24;;;;;;;53.78;24.70;;;;;;;3.27;68.33;95131.14;1704379;84;21163;-54
2022/04/14 05:25:50;;;;;;;45.80;25.02;;;;;;;3.38;68.19;95126.47;1697519;84;21519;-53
2022/04/14 05:28:17;;;;;;;43.33;26.75;;;;;;;3.45;67.94;95130.52;1697155;84;20965;-54
2022/04/14 05:30:46;;;;;;;51.35;27.82;;;;;;;3.49;68.10;95134.80;1722343;83;21437;-53
2022/04/14 05:33:14;;;;;;;41.70;21.85;;;;;;;3.64;68.41;95131.63;1723707;83;21057;-53
2022/04/14 05:35:43;;;;;;;55.38;20.27;;;;;;;3.84;67.78;95140.89;1705652;83;21830;-54
2022/04/14 05:38:10;;;;;;;34.18;21.15;;;;;;;3.99;67.22;95138.31;1698348;84;21001;-54
2022/04/14 05:40:41;;;;;;;36.53;18.82;;;;;;;4.14;66.99;95139.80;1697583;83;21107;-53
2022/04/14 05:43:05;;;;;;;35.08;17.42;;;;;;;4.24;66.31;95129.42;1709511;83;21075;-55
2022/04/14 05:45:32;;;;;;;25.65;16.17;;;;;;;4.37;65.78;95140.06;1703113;83;21073;-54
2022/04/14 05:47:59;;;;;;;34.53;18.37;;;;;;;4.47;65.36;95131.06;1707969;83;21261;-53
2022/04/14 05:50:27;;;;;;;32.03;18.87;;;;;;;4.51;64.95;95134.54;1713988;83;21082;-53
2022/04/14 05:52:56;;;;;;;31.80;19.37;;;;;;;4.56;64.76;95134.11;1714345;82;21020;-53
2022/04/14 05:55:23;;;;;;;38.75;20.85;;;;;;;4.66;64.42;95131.91;1705679;83;21104;-57
2022/04/14 05:57:52;;;;;;;29.12;19.07;;;;;;;4.81;64.35;95132.58;1697026;83;21026;-55
2022/04/14 06:00:19;;;;;;;37.70;21.52;;;;;;;4.95;63.98;95121.58;1695483;83;21201;-53
2022/04/14 06:02:46;;;;;;;42.48;20.62;;;;;;;5.15;63.70;95123.33;1696422;83;21613;-53
2022/04/14 06:05:12;;;;;;;55.20;19.20;;;;;;;5.38;63.18;95133.08;1677952;83;21141;-56
2022/04/14 06:07:40;;;;;;;34.05;17.45;;;;;;;5.52;62.46;95124.73;1688163;83;20968;-55
2022/04/14 06:10:07;;;;;;;30.00;15.75;;;;;;;5.64;61.71;95122.86;1686115;84;21555;-56
2022/04/14 06:12:36;;;;;;;22.20;12.98;;;;;;;5.74;61.35;95126.05;1685270;84;21265;-64
2022/04/14 06:15:04;;;;;;;26.68;12.60;;;;;;;5.84;60.90;95115.64;1686978;84;21614;-56
2022/04/14 06:17:32;;;;;;;14.87;10.85;;;;;;;6.02;60.69;95120.30;1684514;84;21414;-55
2022/04/14 06:19:59;;;;;;;29.55;11.78;;;;;;;6.21;59.76;95122.41;1680645;82;21106;-61
2022/04/14 06:22:28;;;;;;;25.55;12.25;;;;;;;6.35;59.16;95118.13;1689885;84;21099;-55
2022/04/14 06:24:59;;;;;;;21.33;11.35;;;;;;;6.47;58.87;95112.88;1683685;82;21268;-55
2022/04/14 06:27:27;;;;;;;26.27;11.18;;;;;;;6.53;58.18;95118.66;1709781;82;21603;-55
2022/04/14 06:29:53;;;;;;;15.28;9.98;;;;;;;6.61;57.83;95115.41;1718655;82;21004;-54
2022/04/14 06:32:20;;;;;;;22.55;10.23;;;;;;;6.70;57.23;95107.45;1722560;82;21022;-54
2022/04/14 06:34:49;;;;;;;19.95;11.15;;;;;;;6.80;57.05;95109.27;1716590;82;22352;-53
2022/04/14 06:37:15;;;;;;;34.05;12.05;;;;;;;6.94;56.63;95112.38;1705232;82;21336;-52
2022/04/14 06:39:43;;;;;;;26.12;12.85;;;;;;;7.10;56.40;95105.84;1709835;82;22166;-53
2022/04/14 06:42:09;;;;;;;16.95;10.75;;;;;;;7.31;55.81;95101.38;1705702;82;21001;-56
2022/04/14 06:44:36;;;;;;;20.50;8.75;;;;;;;7.45;55.17;95099.77;1679893;84;21103;-53
2022/04/14 06:47:04;;;;;;;16.00;9.48;;;;;;;7.58;54.49;95103.45;1706339;83;21041;-55
2022/04/14 06:49:31;;;;;;;14.78;8.33;;;;;;;7.68;53.52;95098.98;1715584;81;21292;-53
2022/04/14 06:51:57;;;;;;;19.45;8.23;;;;;;;7.77;53.17;95085.48;1713440;82;21099;-55
2022/04/14 06:54:27;;;;;;;34.00;9.63;;;;;;;7.83;52.90;95087.32;1712343;82;21134;-56
2022/04/14 06:56:55;;;;;;;18.67;7.70;;;;;;;7.93;52.46;95087.72;1713481;82;21014;-54
2022/04/14 06:59:23;;;;;;;13.72;7.35;;;;;;;8.03;52.18;95093.57;1710797;81;21086;-55
2022/04/14 07:01:50;;;;;;;12.65;7.55;;;;;;;8.19;51.58;95084.66;1724612;82;21155;-55
2022/04/14 07:04:18;;;;;;;18.85;11.95;;;;;;;8.37;52.00;95078.98;1692158;82;21092;-56
2022/04/14 07:06:47;;;;;;;21.20;10.65;;;;;;;8.59;51.81;95088.90;1716499;82;20982;-57
2022/04/14 07:09:14;;;;;;;16.00;9.73;;;;;;;8.78;51.55;95079.22;1711555;82;21064;-52
2022/04/14 07:11:41;;;;;;;19.45;9.90;;;;;;;9.01;50.81;95078.47;1681097;82;21088;-56
2022/04/14 07:14:08;;;;;;;16.27;9.60;;;;;;;9.21;50.68;95075.03;1716294;82;22001;-54
2022/04/14 07:16:35;;;;;;;17.50;9.75;;;;;;;9.35;50.74;95077.43;1707128;82;21135;-54
2022/04/14 07:19:01;;;;;;;20.57;11.30;;;;;;;9.50;50.96;95075.08;1713148;82;21076;-56
2022/04/14 07:21:30;;;;;;;19.20;10.98;;;;;;;9.68;50.41;95074.02;1718893;82;21039;-56
2022/04/14 07:23:58;;;;;;;18.10;10.70;;;;;;;9.80;49.84;95071.31;1708116;83;21002;-55
2022/04/14 07:26:25;;;;;;;18.02;9.25;;;;;;;9.96;49.77;95074.64;1668763;84;21188;-57
2022/04/14 07:28:52;;;;;;;17.17;9.63;;;;;;;10.17;48.98;95069.94;1682319;84;21093;-55
2022/04/14 07:31:20;;;;;;;16.90;8.80;;;;;;;10.33;48.03;95066.50;1689321;83;21049;-59
2022/04/14 07:33:47;;;;;;;14.28;8.25;;;;;;;10.50;48.01;95068.58;1704478;83;21096;-59
2022/04/14 07:36:21;;;;;;;14.05;8.85;;;;;;;10.65;47.85;95069.67;1690499;83;21064;-55
2022/04/14 07:38:42;;;;;;;16.87;8.85;;;;;;;10.80;47.40;95069.56;1696773;82;21057;-55
2022/04/14 07:41:10;;;;;;;19.35;8.23;;;;;;;11.01;47.05;95064.02;1705441;82;21050;-58
2022/04/14 07:43:37;;;;;;;16.27;8.90;;;;;;;11.19;46.23;95064.21;1690414;83;22175;-58
2022/04/14 07:46:06;;;;;;;15.25;8.13;;;;;;;11.36;45.80;95065.61;1671817;83;21109;-56
2022/04/14 07:48:33;;;;;;;12.60;6.47;;;;;;;11.46;44.53;95063.09;1676686;83;20993;-57
2022/04/14 07:51:01;;;;;;;16.25;9.15;;;;;;;11.58;43.73;95056.82;1691094;83;21227;-57
2022/04/14 07:53:30;;;;;;;22.98;8.80;;;;;;;11.75;44.19;95056.20;1690591;83;21616;-58
2022/04/14 07:55:59;;;;;;;21.27;9.58;;;;;;;11.92;44.18;95060.32;1689098;83;21422;-56
2022/04/14 07:58:25;;;;;;;15.08;8.25;;;;;;;12.02;44.59;95063.32;1701919;83;21035;-57
2022/04/14 08:00:52;;;;;;;13.98;7.78;;;;;;;12.14;44.37;95063.88;1699723;83;21146;-55
2022/04/14 08:03:19;;;;;;;12.23;7.03;;;;;;;12.26;44.30;95066.41;1682859;83;21563;-56
2022/04/14 08:05:47;;;;;;;12.58;7.17;;;;;;;12.40;43.86;95065.86;1701530;83;21202;-55
2022/04/14 08:08:18;;;;;;;13.08;6.50;;;;;;;12.49;43.43;95061.17;1704142;83;21215;-61
2022/04/14 08:10:48;;;;;;;11.50;5.80;;;;;;;12.56;42.96;95069.20;1681533;83;21105;-57
2022/04/14 08:13:16;;;;;;;15.80;6.12;;;;;;;12.73;42.30;95067.75;1691709;83;21047;-55
2022/04/14 08:15:43;;;;;;;8.63;4.50;;;;;;;12.87;42.52;95069.98;1686364;83;21199;-56
2022/04/14 08:18:10;;;;;;;11.20;5.00;;;;;;;13.05;42.25;95064.56;1694901;83;21072;-58
2022/04/14 08:20:41;;;;;;;7.85;4.65;;;;;;;13.20;41.07;95062.73;1676832;83;22186;-63
2022/04/14 08:23:14;;;;;;;16.32;5.45;;;;;;;13.33;41.02;95060.64;1692298;83;21158;-58
2022/04/14 08:25:41;;;;;;;9.43;5.37;;;;;;;13.44;40.79;95052.69;1697741;83;21071;-56
2022/04/14 08:28:09;;;;;;;9.73;6.53;;;;;;;13.67;41.74;95066.68;1717886;82;21375;-57
2022/04/14 08:30:36;;;;;;;14.35;6.47;;;;;;;13.88;41.13;95058.11;1697068;83;21179;-56
2022/04/14 08:33:10;;;;;;;68.20;29.00;;;;;;;14.02;41.01;95059.64;1697360;83;21171;-55
2022/04/14 08:35:37;;;;;;;22.22;10.88;;;;;;;14.18;40.32;95056.59;1701477;83;21565;-54
2022/04/14 08:38:08;;;;;;;10.08;5.83;;;;;;;14.35;39.39;95052.27;1699795;83;21134;-58
2022/04/14 08:40:37;;;;;;;9.70;5.67;;;;;;;14.44;37.64;95048.88;1690585;82;21399;-56
2022/04/14 08:43:07;;;;;;;25.95;10.65;;;;;;;14.52;37.23;95052.09;1708824;82;21025;-57
2022/04/14 08:45:36;;;;;;;14.83;8.25;;;;;;;14.61;37.75;95051.45;1679863;84;21162;-55
2022/04/14 08:48:06;;;;;;;9.08;5.72;;;;;;;14.69;37.24;95047.14;1673503;84;21649;-55
2022/04/14 08:50:33;;;;;;;11.85;6.05;;;;;;;14.79;36.89;95048.63;1703858;83;21072;-54
2022/04/14 08:53:00;;;;;;;9.90;5.55;;;;;;;14.83;36.68;95046.45;1717390;82;21209;-55
2022/04/14 08:55:26;;;;;;;20.48;7.62;;;;;;;14.88;36.93;95043.07;1680647;83;21665;-57
2022/04/14 08:57:55;;;;;;;17.32;5.70;;;;;;;15.03;37.16;95046.68;1712181;82;21115;-56
2022/04/14 09:00:23;;;;;;;10.05;5.70;;;;;;;15.23;36.53;95047.53;1716200;82;21010;-57
2022/04/14 09:02:51;;;;;;;17.10;7.78;;;;;;;15.40;35.95;95043.91;1681508;83;21560;-56
2022/04/14 09:05:18;;;;;;;44.65;23.42;;;;;;;15.56;35.40;95037.21;1663281;84;21127;-58
2022/04/14 09:07:48;;;;;;;17.80;9.33;;;;;;;15.63;35.81;95031.30;1675065;83;21028;-57
2022/04/14 09:10:18;;;;;;;17.37;9.75;;;;;;;15.71;36.38;95033.88;1698171;83;21209;-58
2022/04/14 09:12:48;;;;;;;18.20;8.50;;;;;;;15.75;35.90;95035.22;1695722;83;21158;-58
2022/04/14 09:15:16;;;;;;;15.60;8.45;;;;;;;15.77;35.36;95034.75;1700912;83;21011;-58
2022/04/14 09:17:45;;;;;;;13.58;6.85;;;;;;;15.86;35.12;95031.90;1698902;83;21037;-56
2022/04/14 09:20:37;;;;;;;15.28;5.45;;;;;;;15.92;34.15;95030.02;1660223;83;21148;-56
2022/04/14 09:23:22;;;;;;;16.37;6.92;;;;;;;15.90;33.80;95027.70;1711422;83;21064;-54
2022/04/14 09:26:14;;;;;;;19.20;8.20;;;;;;;15.81;34.37;95029.18;1714037;82;21582;-57
2022/04/14 09:28:42;;;;;;;18.52;7.83;;;;;;;15.81;33.80;95021.46;1707748;82;21353;-54
2022/04/14 09:31:10;;;;;;;14.75;7.03;;;;;;;15.79;34.42;95024.73;1691433;83;21156;-55
2022/04/14 09:33:46;;;;;;;14.07;6.05;;;;;;;15.85;33.63;95026.20;1708331;82;21046;-60
2022/04/14 09:36:19;;;;;;;9.90;5.15;;;;;;;15.94;32.47;95021.35;1715568;82;21076;-56
2022/04/14 09:39:06;;;;;;;10.40;4.65;;;;;;;15.94;32.56;95019.21;1693772;82;21603;-57
2022/04/14 09:41:42;;;;;;;14.80;4.17;;;;;;;16.02;32.25;95016.20;1702718;82;21068;-56
2022/04/14 09:44:14;;;;;;;11.20;4.58;;;;;;;16.01;31.84;95013.28;1685744;82;21133;-56
2022/04/14 09:46:47;;;;;;;6.73;4.17;;;;;;;16.06;30.13;95016.17;1705615;82;20980;-58
2022/04/14 09:49:18;;;;;;;8.60;4.05;;;;;;;16.15;30.57;95008.39;1724917;82;21070;-57
2022/04/14 09:51:47;;;;;;;9.83;4.00;;;;;;;16.35;28.00;95001.73;1704424;82;21049;-58
2022/04/14 09:54:19;;;;;;;14.00;4.37;;;;;;;16.39;28.00;94998.14;1686043;84;21504;-56
2022/04/14 09:56:51;;;;;;;18.25;6.05;;;;;;;16.53;28.34;95002.19;1714738;82;22014;-59
2022/04/14 09:59:22;;;;;;;10.82;3.85;;;;;;;16.66;28.19;94998.47;1716272;81;21012;-56
2022/04/14 10:02:13;;;;;;;5.95;3.67;;;;;;;16.77;27.79;95003.59;1715564;82;21421;-56
2022/04/14 10:04:45;;;;;;;19.92;4.92;;;;;;;16.76;28.10;95002.05;1700837;82;21059;-56
2022/04/14 10:07:15;;;;;;;11.88;5.17;;;;;;;16.76;27.29;95004.83;1692296;84;21669;-56
2022/04/14 10:09:49;;;;;;;9.93;4.55;;;;;;;16.83;27.30;94995.34;1711143;82;22023;-56
2022/04/14 10:12:21;;;;;;;8.60;3.98;;;;;;;17.00;26.60;94997.16;1699125;83;21486;-57
2022/04/14 10:15:07;;;;;;;6.75;4.15;;;;;;;17.23;25.81;94998.23;1704621;82;21216;-56
2022/04/14 10:17:38;;;;;;;16.27;4.95;;;;;;;17.49;25.47;94993.59;1715724;82;21078;-56
2022/04/14 10:20:08;;;;;;;6.70;3.27;;;;;;;17.86;25.01;94990.39;1711256;82;21170;-56
2022/04/14 10:22:38;;;;;;;7.90;3.75;;;;;;;18.14;24.48;94986.67;1714508;82;21234;-56
2022/04/14 10:25:07;;;;;;;8.25;3.98;;;;;;;18.48;24.40;94986.54;1716039;82;21039;-57
2022/04/14 10:27:36;;;;;;;18.25;6.72;;;;;;;18.74;23.84;94985.91;1708856;82;21529;-57
2022/04/14 10:30:05;;;;;;;9.63;4.12;;;;;;;18.97;24.56;94988.25;1671953;84;22149;-57
2022/04/14 10:32:34;;;;;;;8.88;3.12;;;;;;;19.35;25.12;94988.54;1702442;83;21031;-56
2022/04/14 10:35:04;;;;;;;7.17;2.77;;;;;;;19.79;23.75;94986.01;1689483;83;21198;-57
2022/04/14 10:37:45;;;;;;;6.87;2.67;;;;;;;20.21;22.35;94978.95;1628762;84;21575;-58
2022/04/14 10:40:12;;;;;;;8.68;3.37;;;;;;;20.62;20.65;94980.05;1687039;84;21053;-59
2022/04/14 10:42:47;;;;;;;10.88;3.37;;;;;;;20.79;22.30;94972.44;1665765;84;21045;-56
2022/04/14 10:45:18;;;;;;;12.60;3.72;;;;;;;20.99;22.09;94970.20;1698003;83;21059;-56
2022/04/14 10:47:59;;;;;;;6.05;3.33;;;;;;;21.12;21.54;94971.82;1695527;83;21128;-56
2022/04/14 10:50:32;;;;;;;8.83;3.52;;;;;;;21.15;22.04;94963.80;1699009;83;21032;-58
2022/04/14 10:53:12;;;;;;;7.85;3.83;;;;;;;21.34;22.09;94962.64;1671231;84;21094;-55
2022/04/14 10:55:44;;;;;;;7.05;3.52;;;;;;;21.77;22.08;94962.42;1672760;84;21071;-57
2022/04/14 10:58:39;;;;;;;10.80;3.72;;;;;;;22.30;21.50;94960.66;1674361;84;21080;-57
2022/04/14 11:01:13;;;;;;;8.98;2.98;;;;;;;22.90;22.08;94955.97;1669045;84;21067;-58
2022/04/14 11:03:49;;;;;;;7.08;3.10;;;;;;;23.40;18.16;94956.33;1621665;85;21037;-59
2022/04/14 11:06:47;;;;;;;4.83;2.95;;;;;;;23.51;17.96;94954.16;1691158;83;21447;-59
2022/04/14 11:09:48;;;;;;;7.65;3.35;;;;;;;23.72;18.77;94958.02;1672447;84;21623;-60
2022/04/14 11:12:22;;;;;;;5.40;3.20;;;;;;;24.23;18.95;94948.49;1699257;83;21050;-57
2022/04/14 11:15:03;;;;;;;3.33;2.42;;;;;;;24.64;19.37;94947.56;1699622;83;21150;-57
2022/04/14 11:17:56;;;;;;;5.87;3.90;;;;;;;24.92;17.51;94948.66;1699816;83;21720;-55
2022/04/14 11:20:41;;;;;;;4.72;3.25;;;;;;;24.98;18.31;94944.34;1697908;82;20988;-56
2022/04/14 11:23:24;;;;;;;7.20;2.70;;;;;;;25.02;18.41;94934.30;1702834;83;21008;-55
2022/04/14 11:25:55;;;;;;;3.67;2.30;;;;;;;25.13;17.72;94941.80;1663725;84;21080;-59
2022/04/14 11:28:43;;;;;;;7.42;3.17;;;;;;;25.34;17.32;94931.48;1663718;84;21240;-57
2022/04/14 11:31:22;;;;;;;6.33;3.00;;;;;;;25.50;16.43;94944.52;1700496;82;21037;-56
2022/04/14 11:33:50;;;;;;;4.75;2.98;;;;;;;25.41;16.16;94935.05;1697259;83;20988;-59
2022/04/14 11:36:25;;;;;;;4.60;2.92;;;;;;;25.32;15.99;94933.41;1698959;83;21056;-57